KTVF

Details ICAO KTVF (TVF)
Name THIEF RIVER FALLS RGNL
Region United States
Timezone America/Chicago (UTC-5.0)
Plans Departing 2
Arriving 3
Stats Elevation 1,116 ft / 340 m (AMSL)
Location 48.065828° -96.185155°
Runways 2
Magnetic Variation 2.300° E
Sunrise 2018-05-24 10:37:03 UTC / 2018-05-24 05:37:03 Local
Sunset 2018-05-25 02:09:02 UTC / 2018-05-24 21:09:02 Local
Advertisement - Login to hide

Runways

ID Width Length Bearing (true) Bearing (mag) Surface Threshold Offset Overrun Length
03 75 ft / 23 m 4,992 ft / 1,522 m 39.13° 36.83° Asphalt 0 ft / 0 m 0 ft / 0 m
13 150 ft / 46 m 6,495 ft / 1,980 m 134.86° 132.56° Asphalt 0 ft / 0 m 0 ft / 0 m
21 75 ft / 23 m 4,992 ft / 1,522 m 219.14° 216.84° Asphalt 0 ft / 0 m 0 ft / 0 m
31 150 ft / 46 m 6,495 ft / 1,980 m 314.87° 312.57° Asphalt 0 ft / 0 m 0 ft / 0 m

Map

Weather


0- 5 10 15 20 25 30 35+ Temperature / ° C

Clouds and Precipitation
Forecast for 2018-05-25 06:00 UTC. Updated an hour ago

Ground ~20,000 ft ~40,000 ft Winds

METAR

KTVF 250556Z AUTO 22009KT 10SM FEW090 19/17 A2970 RMK AO2 SLP052 60023 T01940167 10294 20189 56000

TAF

TAF KTVF 250520Z 2506/2606 20006KT P6SM SCT200 FM251200 23007KT P6SM FEW250 FM251700 25012KT P6SM FEW060 FEW250 FM252000 27013KT P6SM FEW080 SCT130 FM260200 27006KT P6SM FEW250

Frequencies

Unicom 122.80 MHz CTAF/UNICOM
Warning: Do not use this data for real-world aviation or navigation. No guarantee of current accuracy is given.